createdAt,value
2023-01-27T00:01:34.701Z,94.52
2023-01-27T00:04:06.137Z,95.95
2023-01-27T00:06:38.015Z,96.54
2023-01-27T00:09:08.418Z,95.80
2023-01-27T00:11:56.619Z,95.84
2023-01-27T00:14:26.940Z,96.21
2023-01-27T00:16:57.512Z,96.18
2023-01-27T00:19:28.401Z,97.32
2023-01-27T00:22:18.956Z,97.95
2023-01-27T00:24:49.358Z,97.88
2023-01-27T00:27:20.787Z,98.54
2023-01-27T00:29:51.245Z,99.11
2023-01-27T00:32:39.607Z,99.43
2023-01-27T00:35:12.478Z,99.71
2023-01-27T00:37:45.722Z,99.99
2023-01-27T00:40:18.151Z,99.99
2023-01-27T00:42:48.627Z,99.99
2023-01-27T00:45:38.433Z,99.99
2023-01-27T00:48:10.741Z,99.99
2023-01-27T00:50:41.636Z,99.99
2023-01-27T00:53:13.862Z,99.99
2023-01-27T00:55:44.906Z,99.99
2023-01-27T00:58:16.405Z,99.99
2023-01-27T01:00:47.754Z,99.99
2023-01-27T01:03:18.784Z,99.99
2023-01-27T01:05:49.314Z,99.99
2023-01-27T01:08:19.939Z,99.99
2023-01-27T01:10:50.464Z,99.99
2023-01-27T01:13:23.135Z,99.99
2023-01-27T01:15:53.603Z,99.99
2023-01-27T01:18:24.622Z,99.99
2023-01-27T01:20:57.494Z,99.99
2023-01-27T01:23:28.111Z,99.99
2023-01-27T01:26:00.117Z,99.99
2023-01-27T01:28:31.506Z,99.99
2023-01-27T01:31:10.366Z,99.99
2023-01-27T01:33:41.515Z,99.99
2023-01-27T01:36:15.683Z,99.99
2023-01-27T01:38:46.743Z,99.99
2023-01-27T01:41:22.723Z,99.99
2023-01-27T01:43:53.818Z,99.99
2023-01-27T01:46:24.690Z,99.99
2023-01-27T01:49:05.503Z,99.99
2023-01-27T01:51:50.045Z,99.99
2023-01-27T01:54:29.392Z,99.99
2023-01-27T01:57:23.306Z,99.99
2023-01-27T02:00:02.039Z,99.99
2023-01-27T02:02:44.408Z,99.99
2023-01-27T02:05:38.036Z,99.99
2023-01-27T02:08:27.615Z,99.99
2023-01-27T02:11:00.598Z,99.99
2023-01-27T02:13:30.893Z,99.99
2023-01-27T02:16:01.637Z,99.99
2023-01-27T02:18:34.899Z,99.99
2023-01-27T02:21:06.955Z,99.99
2023-01-27T02:23:49.818Z,99.99
2023-01-27T02:26:25.584Z,99.99
2023-01-27T02:28:59.180Z,99.99
2023-01-27T02:31:29.805Z,99.99
2023-01-27T02:34:04.279Z,99.99
2023-01-27T02:36:39.117Z,99.99
2023-01-27T02:39:12.124Z,99.99
2023-01-27T02:41:49.091Z,99.99
2023-01-27T02:44:19.529Z,99.99
2023-01-27T02:46:50.377Z,99.99
2023-01-27T02:49:21.268Z,99.99
2023-01-27T02:51:53.132Z,99.99
2023-01-27T02:54:30.164Z,99.99
2023-01-27T02:57:00.685Z,99.99
2023-01-27T02:59:32.588Z,99.99
2023-01-27T03:02:02.920Z,99.99
2023-01-27T03:04:33.090Z,99.99
2023-01-27T03:07:03.254Z,99.99
2023-01-27T03:09:33.640Z,99.99
2023-01-27T03:12:22.191Z,99.99
2023-01-27T03:15:12.647Z,99.99
2023-01-27T03:18:02.026Z,99.99
2023-01-27T03:20:32.692Z,99.99
2023-01-27T03:23:03.005Z,99.99
2023-01-27T03:25:36.029Z,99.99
2023-01-27T03:28:06.371Z,99.99
2023-01-27T03:30:47.149Z,99.99
2023-01-27T03:33:24.941Z,99.99
2023-01-27T03:36:17.005Z,99.99
2023-01-27T03:39:11.869Z,99.99
2023-01-27T03:42:00.570Z,99.99
2023-01-27T03:44:49.127Z,99.99
2023-01-27T03:47:19.499Z,99.99
2023-01-27T03:49:49.690Z,99.99
2023-01-27T03:52:20.039Z,99.99
2023-01-27T03:54:50.276Z,99.99
2023-01-27T03:57:20.686Z,99.99
2023-01-27T03:59:51.002Z,99.99
2023-01-27T04:02:39.793Z,99.99
2023-01-27T04:05:28.698Z,99.99
2023-01-27T04:07:58.887Z,99.99
2023-01-27T04:10:29.183Z,99.99
2023-01-27T04:12:59.331Z,99.99
2023-01-27T04:15:29.472Z,99.99
2023-01-27T04:17:59.648Z,99.99
2023-01-27T04:20:29.799Z,99.99
2023-01-27T04:22:59.961Z,99.99
2023-01-27T04:25:30.190Z,99.99
2023-01-27T04:28:00.402Z,99.99
2023-01-27T04:30:30.581Z,99.99
2023-01-27T04:33:03.796Z,99.99
2023-01-27T04:35:38.644Z,99.99
2023-01-27T04:38:09.239Z,99.99
2023-01-27T04:40:39.455Z,99.99
2023-01-27T04:43:09.712Z,99.99
2023-01-27T04:45:40.882Z,99.99
2023-01-27T04:48:11.097Z,99.99
2023-01-27T04:50:41.375Z,99.99
2023-01-27T04:53:11.576Z,99.99
2023-01-27T04:55:43.134Z,99.99
2023-01-27T04:58:15.342Z,99.99
2023-01-27T05:00:46.706Z,99.99
2023-01-27T05:03:16.881Z,99.99
2023-01-27T05:05:47.102Z,99.99
2023-01-27T05:08:17.374Z,99.99
2023-01-27T05:10:47.617Z,99.99
2023-01-27T05:13:17.780Z,99.99
2023-01-27T05:15:47.950Z,99.99
2023-01-27T05:18:18.364Z,99.99
2023-01-27T05:20:49.724Z,99.99
2023-01-27T05:23:39.216Z,99.99
2023-01-27T05:26:21.759Z,99.99
2023-01-27T05:28:53.351Z,99.99
2023-01-27T05:31:29.231Z,99.99
2023-01-27T05:34:01.965Z,99.99
2023-01-27T05:36:32.864Z,99.99
2023-01-27T05:39:03.340Z,99.99
2023-01-27T05:41:33.857Z,99.99
2023-01-27T05:44:04.354Z,99.99
2023-01-27T05:46:35.250Z,99.99
2023-01-27T05:49:06.853Z,99.99
2023-01-27T05:51:40.931Z,99.99
2023-01-27T05:54:11.640Z,99.99
2023-01-27T05:56:44.298Z,99.99
2023-01-27T05:59:14.599Z,99.99
2023-01-27T06:01:44.972Z,99.99
2023-01-27T06:04:15.632Z,99.99
2023-01-27T06:06:45.988Z,99.99
2023-01-27T06:09:16.191Z,99.99
2023-01-27T06:11:46.817Z,99.99
2023-01-27T06:14:17.214Z,99.99
2023-01-27T06:16:49.123Z,99.99
2023-01-27T06:19:19.299Z,99.99
2023-01-27T06:21:49.654Z,99.99
2023-01-27T06:24:20.509Z,99.99
2023-01-27T06:26:51.198Z,99.99
2023-01-27T06:29:21.485Z,99.99
2023-01-27T06:31:51.851Z,99.99
2023-01-27T06:34:22.141Z,99.99
2023-01-27T06:36:55.251Z,99.99
2023-01-27T06:39:25.451Z,99.99
2023-01-27T06:41:55.917Z,99.99
2023-01-27T06:44:26.076Z,99.99
2023-01-27T06:46:56.232Z,99.99
2023-01-27T06:49:26.692Z,99.99
2023-01-27T06:51:56.800Z,99.99
2023-01-27T06:54:27.749Z,99.99
2023-01-27T06:56:58.101Z,99.99
2023-01-27T06:59:28.100Z,99.99
2023-01-27T07:01:58.400Z,99.99
2023-01-27T07:04:28.828Z,99.99
2023-01-27T07:06:59.014Z,99.99
2023-01-27T07:09:29.889Z,99.99
2023-01-27T07:12:02.468Z,99.99
2023-01-27T07:14:32.629Z,99.99
2023-01-27T07:17:02.866Z,99.99
2023-01-27T07:19:34.593Z,99.99
2023-01-27T07:22:05.319Z,99.99
2023-01-27T07:24:36.811Z,99.99
2023-01-27T07:27:07.987Z,99.99
2023-01-27T07:29:38.318Z,99.99
2023-01-27T07:32:09.242Z,99.99
2023-01-27T07:34:39.595Z,99.99
2023-01-27T07:37:09.799Z,99.99
2023-01-27T07:39:40.270Z,99.99
2023-01-27T07:42:11.525Z,99.99
2023-01-27T07:44:41.695Z,99.99
2023-01-27T07:47:12.136Z,99.99
2023-01-27T07:49:42.305Z,99.99
2023-01-27T07:52:12.587Z,99.99
2023-01-27T07:54:42.844Z,99.99
2023-01-27T07:57:13.020Z,99.99
2023-01-27T07:59:43.366Z,99.99
2023-01-27T08:02:13.658Z,99.99
2023-01-27T08:04:53.400Z,99.99
2023-01-27T08:07:24.207Z,99.99
2023-01-27T08:09:56.102Z,99.99
2023-01-27T08:12:26.247Z,99.99
2023-01-27T08:14:56.548Z,99.99
2023-01-27T08:17:26.877Z,99.99
2023-01-27T08:19:57.083Z,99.99
2023-01-27T08:22:27.468Z,99.99
2023-01-27T08:24:57.691Z,99.99
2023-01-27T08:27:28.035Z,99.99
2023-01-27T08:29:58.201Z,99.99
2023-01-27T08:32:28.357Z,99.99
2023-01-27T08:34:58.667Z,99.99
2023-01-27T08:37:28.927Z,99.99
2023-01-27T08:39:59.083Z,99.99
2023-01-27T08:42:31.090Z,99.99
2023-01-27T08:45:01.762Z,99.99
2023-01-27T08:47:32.303Z,99.99
2023-01-27T08:50:02.485Z,99.99
2023-01-27T08:52:32.875Z,99.99
2023-01-27T08:55:03.121Z,99.99
2023-01-27T08:57:35.248Z,99.99
2023-01-27T09:00:08.894Z,99.99
2023-01-27T09:02:39.101Z,99.99
2023-01-27T09:05:09.626Z,99.99
2023-01-27T09:07:41.069Z,99.99
2023-01-27T09:10:15.148Z,99.99
2023-01-27T09:12:46.472Z,99.99
2023-01-27T09:15:18.066Z,99.99
2023-01-27T09:17:48.528Z,99.99
2023-01-27T09:20:18.916Z,99.99
2023-01-27T09:22:49.583Z,99.99
2023-01-27T09:25:20.036Z,99.99
2023-01-27T09:27:50.365Z,99.99
2023-01-27T09:30:20.639Z,99.99
2023-01-27T09:32:51.408Z,99.99
2023-01-27T09:35:21.661Z,99.99
2023-01-27T09:37:58.361Z,99.99
2023-01-27T09:40:32.998Z,99.99
2023-01-27T09:43:28.921Z,99.99
2023-01-27T09:46:20.259Z,99.99
2023-01-27T09:49:05.637Z,99.99
2023-01-27T09:51:35.811Z,99.99
2023-01-27T09:54:09.076Z,99.99
2023-01-27T09:57:06.097Z,99.99
2023-01-27T09:59:51.681Z,99.99
2023-01-27T10:02:47.206Z,99.48
2023-01-27T10:05:37.828Z,98.85
2023-01-27T10:08:26.083Z,97.86
2023-01-27T10:11:29.672Z,97.57
2023-01-27T10:14:14.961Z,96.88
2023-01-27T10:17:05.691Z,96.33
2023-01-27T10:20:16.826Z,94.54
2023-01-27T10:23:11.062Z,93.51
2023-01-27T10:26:11.799Z,89.28
2023-01-27T10:28:49.108Z,90.41
2023-01-27T10:31:30.911Z,90.53
2023-01-27T10:34:11.852Z,88.61
2023-01-27T10:37:18.266Z,86.89
2023-01-27T10:39:58.778Z,85.03
2023-01-27T10:42:46.645Z,84.94
2023-01-27T10:45:39.162Z,83.98
2023-01-27T10:48:53.614Z,83.41
2023-01-27T10:51:32.036Z,83.99
2023-01-27T10:54:04.971Z,82.37
2023-01-27T10:57:11.065Z,80.69
2023-01-27T11:00:14.271Z,79.55
2023-01-27T11:02:52.493Z,80.02
2023-01-27T11:05:31.969Z,80.55
2023-01-27T11:08:28.344Z,80.86
2023-01-27T11:11:21.441Z,79.86
2023-01-27T11:14:04.590Z,79.56
2023-01-27T11:16:38.494Z,79.51
2023-01-27T11:19:32.614Z,79.99
2023-01-27T11:22:08.593Z,75.29
2023-01-27T11:24:54.273Z,75.56
2023-01-27T11:27:48.697Z,77.85
2023-01-27T11:30:27.339Z,76.73
2023-01-27T11:33:25.032Z,77.21
2023-01-27T11:35:56.339Z,77.67
2023-01-27T11:38:26.865Z,78.39
2023-01-27T11:40:57.370Z,78.06
2023-01-27T11:43:30.131Z,78.14
2023-01-27T11:46:06.641Z,75.05
2023-01-27T11:48:50.762Z,76.73
2023-01-27T11:51:24.968Z,75.95
2023-01-27T11:54:18.478Z,73.39
2023-01-27T11:56:51.671Z,72.64
2023-01-27T11:59:29.078Z,72.16
2023-01-27T12:02:15.773Z,70.37
2023-01-27T12:05:01.505Z,71.62
2023-01-27T12:07:56.041Z,70.95
2023-01-27T12:10:46.140Z,71.37
2023-01-27T12:13:26.843Z,69.93
2023-01-27T12:16:06.312Z,71.27
2023-01-27T12:18:48.807Z,69.05
2023-01-27T12:21:20.212Z,70.48
2023-01-27T12:23:58.046Z,69.99
2023-01-27T12:26:37.970Z,70.38
2023-01-27T12:29:24.760Z,71.42
2023-01-27T12:31:58.919Z,68.17
2023-01-27T12:34:31.076Z,67.81
2023-01-27T12:37:02.071Z,66.89
2023-01-27T12:39:35.221Z,66.44
2023-01-27T12:42:05.671Z,67.21
2023-01-27T12:44:47.105Z,66.28
2023-01-27T12:47:29.706Z,67.89
2023-01-27T12:50:36.672Z,69.60
2023-01-27T12:53:16.079Z,66.95
2023-01-27T12:56:09.357Z,66.66
2023-01-27T12:58:57.722Z,67.69
2023-01-27T13:01:37.615Z,66.08
2023-01-27T13:04:18.719Z,66.20
2023-01-27T13:06:53.963Z,65.76
2023-01-27T13:09:38.312Z,65.12
2023-01-27T13:12:19.103Z,66.72
2023-01-27T13:14:54.791Z,65.60
2023-01-27T13:17:46.262Z,68.22
2023-01-27T13:20:41.337Z,66.26
2023-01-27T13:23:36.506Z,65.75
2023-01-27T13:26:06.774Z,64.18
2023-01-27T13:28:51.814Z,65.19
2023-01-27T13:32:05.934Z,66.32
2023-01-27T13:34:54.864Z,65.38
2023-01-27T13:37:48.414Z,64.17
2023-01-27T13:40:40.378Z,62.99
2023-01-27T13:43:21.263Z,63.04
2023-01-27T13:45:57.048Z,63.26
2023-01-27T13:48:39.013Z,64.02
2023-01-27T13:51:23.435Z,64.05
2023-01-27T13:54:00.546Z,67.48
2023-01-27T13:56:30.926Z,61.59
2023-01-27T13:59:34.448Z,64.45
2023-01-27T14:02:52.010Z,65.70
2023-01-27T14:05:34.279Z,64.02
2023-01-27T14:08:20.678Z,61.39
2023-01-27T14:11:15.031Z,63.04
2023-01-27T14:14:18.089Z,62.44
2023-01-27T14:17:03.511Z,58.78
2023-01-27T14:19:45.641Z,59.16
2023-01-27T14:22:30.464Z,60.28
2023-01-27T14:25:05.388Z,60.06
2023-01-27T14:27:50.018Z,59.40
2023-01-27T14:30:43.825Z,58.02
2023-01-27T14:33:35.554Z,56.54
2023-01-27T14:36:31.303Z,57.14
2023-01-27T14:39:18.732Z,56.31
2023-01-27T14:42:05.335Z,58.04
2023-01-27T14:45:03.053Z,58.85
2023-01-27T14:47:45.497Z,58.21
2023-01-27T14:50:39.888Z,58.11
2023-01-27T14:53:32.130Z,57.64
2023-01-27T14:56:14.310Z,55.47
2023-01-27T14:58:57.038Z,58.27
2023-01-27T15:01:30.877Z,55.30
2023-01-27T15:04:22.433Z,58.08
2023-01-27T15:07:07.622Z,56.32
2023-01-27T15:10:29.165Z,57.49
2023-01-27T15:13:11.828Z,55.11
2023-01-27T15:15:50.892Z,54.41
2023-01-27T15:18:34.471Z,53.18
2023-01-27T15:21:14.188Z,55.34
2023-01-27T15:24:19.582Z,57.55
2023-01-27T15:26:50.520Z,55.56
2023-01-27T15:29:26.873Z,53.52
2023-01-27T15:32:39.134Z,55.52
2023-01-27T15:35:24.817Z,54.65
2023-01-27T15:38:09.551Z,54.44
2023-01-27T15:41:03.098Z,57.00
2023-01-27T15:43:33.938Z,56.69
2023-01-27T15:46:33.531Z,58.59
2023-01-27T15:49:06.392Z,53.47
2023-01-27T15:51:38.527Z,53.20
2023-01-27T15:54:25.571Z,53.27
2023-01-27T15:56:57.215Z,52.48
2023-01-27T15:59:33.200Z,56.80
2023-01-27T16:02:18.204Z,55.63
2023-01-27T16:04:57.088Z,56.36
2023-01-27T16:07:34.267Z,56.26
2023-01-27T16:10:06.090Z,57.73
2023-01-27T16:12:41.417Z,57.22
2023-01-27T16:15:17.662Z,55.56
2023-01-27T16:18:10.920Z,54.30
2023-01-27T16:21:33.606Z,54.48
2023-01-27T16:24:09.774Z,53.69
2023-01-27T16:26:55.106Z,56.43
2023-01-27T16:29:47.347Z,59.58
2023-01-27T16:32:22.894Z,59.34
2023-01-27T16:35:06.314Z,60.54
2023-01-27T16:37:41.299Z,59.87
2023-01-27T16:40:41.353Z,58.95
2023-01-27T16:43:38.041Z,63.08
2023-01-27T16:46:21.619Z,62.59
2023-01-27T16:48:54.776Z,61.69
2023-01-27T16:51:32.120Z,58.74
2023-01-27T16:54:04.831Z,56.33
2023-01-27T16:56:37.996Z,55.13
2023-01-27T16:59:19.714Z,54.46
2023-01-27T17:01:53.326Z,52.62
2023-01-27T17:04:25.378Z,53.78
2023-01-27T17:07:00.680Z,50.74
2023-01-27T17:09:33.625Z,52.32
2023-01-27T17:12:03.935Z,52.25
2023-01-27T17:14:39.717Z,51.09
2023-01-27T17:17:20.777Z,51.35
2023-01-27T17:19:53.629Z,48.01
2023-01-27T17:22:45.302Z,52.28
2023-01-27T17:25:28.376Z,51.47
2023-01-27T17:28:01.595Z,50.81
2023-01-27T17:30:43.365Z,51.72
2023-01-27T17:33:21.039Z,51.95
2023-01-27T17:35:56.813Z,53.17
2023-01-27T17:38:47.026Z,54.90
2023-01-27T17:41:40.014Z,58.13
2023-01-27T17:44:15.722Z,59.90
2023-01-27T17:46:46.643Z,56.56
2023-01-27T17:49:20.060Z,58.00
2023-01-27T17:51:56.960Z,61.90
2023-01-27T17:54:34.814Z,60.92
2023-01-27T17:57:11.358Z,62.10
2023-01-27T17:59:47.267Z,63.56
2023-01-27T18:02:52.342Z,63.77
2023-01-27T18:05:30.620Z,67.76
2023-01-27T18:08:02.773Z,68.14
2023-01-27T18:10:35.724Z,67.87
2023-01-27T18:13:18.085Z,69.94
2023-01-27T18:15:52.195Z,70.74
2023-01-27T18:18:28.123Z,66.95
2023-01-27T18:21:10.607Z,64.92
2023-01-27T18:23:54.017Z,59.13
2023-01-27T18:26:28.959Z,56.09
2023-01-27T18:29:08.847Z,56.16
2023-01-27T18:31:48.783Z,56.66
2023-01-27T18:34:32.052Z,55.57
2023-01-27T18:37:23.305Z,54.82
2023-01-27T18:39:54.904Z,55.94
2023-01-27T18:42:27.083Z,55.77
2023-01-27T18:44:58.814Z,54.80
2023-01-27T18:47:36.605Z,56.43
2023-01-27T18:50:20.730Z,56.40
2023-01-27T18:52:52.399Z,56.26
2023-01-27T18:55:30.730Z,55.21
2023-01-27T18:58:02.013Z,53.95
2023-01-27T19:00:46.650Z,55.34
2023-01-27T19:03:28.294Z,54.83
2023-01-27T19:05:59.065Z,53.92
2023-01-27T19:08:29.479Z,54.13
2023-01-27T19:11:00.107Z,55.57
2023-01-27T19:13:30.439Z,55.10
2023-01-27T19:16:01.931Z,55.03
2023-01-27T19:18:39.113Z,54.88
2023-01-27T19:21:15.285Z,55.61
2023-01-27T19:23:50.799Z,54.67
2023-01-27T19:26:23.418Z,55.58
2023-01-27T19:28:58.792Z,55.32
2023-01-27T19:31:29.358Z,55.71
2023-01-27T19:33:59.830Z,55.62
2023-01-27T19:36:36.733Z,55.99
2023-01-27T19:39:09.666Z,56.67
2023-01-27T19:41:40.208Z,56.15
2023-01-27T19:44:12.852Z,55.64
2023-01-27T19:46:44.515Z,56.04
2023-01-27T19:49:19.138Z,56.12
2023-01-27T19:51:49.606Z,57.14
2023-01-27T19:54:20.580Z,57.96
2023-01-27T19:56:53.030Z,59.14
2023-01-27T19:59:23.374Z,57.08
2023-01-27T20:01:53.939Z,57.79
2023-01-27T20:04:24.359Z,57.95
2023-01-27T20:06:54.766Z,55.86
2023-01-27T20:09:25.272Z,56.91
2023-01-27T20:11:55.663Z,57.62
2023-01-27T20:14:27.917Z,58.59
2023-01-27T20:16:59.871Z,60.19
2023-01-27T20:19:30.730Z,59.20
2023-01-27T20:22:02.731Z,59.28
2023-01-27T20:24:34.339Z,59.44
2023-01-27T20:27:04.502Z,60.16
2023-01-27T20:29:36.641Z,60.35
2023-01-27T20:32:09.844Z,60.37
2023-01-27T20:34:41.691Z,62.10
2023-01-27T20:37:11.824Z,60.47
2023-01-27T20:39:42.165Z,61.36
2023-01-27T20:42:12.301Z,61.69
2023-01-27T20:44:42.630Z,61.46
2023-01-27T20:47:14.531Z,61.75
2023-01-27T20:49:45.608Z,62.75
2023-01-27T20:52:15.922Z,61.14
2023-01-27T20:54:46.092Z,60.76
2023-01-27T20:57:16.541Z,61.73
2023-01-27T20:59:47.691Z,60.99
2023-01-27T21:02:19.791Z,61.64
2023-01-27T21:04:50.280Z,61.30
2023-01-27T21:07:20.918Z,61.43
2023-01-27T21:09:52.524Z,61.84
2023-01-27T21:12:23.807Z,62.02
2023-01-27T21:14:54.787Z,63.07
2023-01-27T21:17:25.214Z,63.13
2023-01-27T21:19:55.614Z,62.82
2023-01-27T21:22:26.756Z,62.16
2023-01-27T21:24:59.029Z,63.54
2023-01-27T21:27:29.175Z,63.11
2023-01-27T21:29:59.560Z,66.16
2023-01-27T21:32:29.765Z,68.27
2023-01-27T21:35:01.007Z,64.94
2023-01-27T21:37:31.449Z,66.13
2023-01-27T21:40:01.786Z,69.23
2023-01-27T21:42:57.811Z,69.04
2023-01-27T21:45:29.819Z,68.50
2023-01-27T21:47:59.474Z,68.60
2023-01-27T21:50:30.412Z,72.28
2023-01-27T21:53:00.631Z,72.42
2023-01-27T21:55:32.401Z,72.95
2023-01-27T21:58:02.745Z,72.73
2023-01-27T22:00:33.213Z,74.84
2023-01-27T22:03:05.502Z,75.68
2023-01-27T22:05:40.325Z,75.05
2023-01-27T22:08:10.777Z,76.43
2023-01-27T22:10:42.084Z,77.82
2023-01-27T22:13:12.355Z,77.79
2023-01-27T22:15:42.685Z,79.02
2023-01-27T22:18:12.973Z,79.63
2023-01-27T22:20:43.352Z,80.16
2023-01-27T22:23:13.523Z,80.81
2023-01-27T22:25:50.856Z,82.18
2023-01-27T22:28:24.277Z,82.23
2023-01-27T22:30:55.777Z,83.43
2023-01-27T22:33:26.144Z,84.04
2023-01-27T22:36:04.909Z,85.56
2023-01-27T22:38:40.076Z,85.37
2023-01-27T22:41:10.258Z,86.13
2023-01-27T22:43:40.677Z,86.85
2023-01-27T22:46:11.061Z,86.55
2023-01-27T22:48:41.431Z,87.07
2023-01-27T22:51:12.003Z,87.39
2023-01-27T22:53:42.571Z,87.48
2023-01-27T22:56:12.855Z,87.78
2023-01-27T22:58:43.275Z,88.79
2023-01-27T23:01:13.848Z,88.98
2023-01-27T23:03:44.228Z,89.50
2023-01-27T23:06:15.140Z,89.03
2023-01-27T23:08:45.527Z,89.18
2023-01-27T23:11:15.965Z,89.13
2023-01-27T23:13:46.448Z,89.52
2023-01-27T23:16:17.041Z,90.07
2023-01-27T23:18:47.379Z,90.40
2023-01-27T23:21:19.567Z,91.16
2023-01-27T23:23:52.235Z,91.15
2023-01-27T23:26:23.794Z,91.86
2023-01-27T23:28:54.115Z,91.93
2023-01-27T23:31:24.767Z,92.57
2023-01-27T23:33:55.273Z,92.73
2023-01-27T23:36:27.414Z,92.98
2023-01-27T23:38:58.029Z,93.29
2023-01-27T23:41:28.526Z,93.75
2023-01-27T23:43:58.940Z,94.41
2023-01-27T23:46:29.331Z,94.34
2023-01-27T23:48:59.914Z,94.47
2023-01-27T23:51:30.234Z,94.69
2023-01-27T23:54:01.577Z,95.21
2023-01-27T23:56:31.739Z,95.35
2023-01-27T23:59:02.137Z,95.23
